Segno, Texas
Current Conditions -  °F | °C
As of 9:30 AM on Monday 24 Nov 2014 (Local Time) from K6R3 Reporting Station
Clear Clear  
Wind Chill: 56°   Ceiling: Unl
Heat Index: 56°   Visibility: 7mi
Dew Point: 40°   Wind: 10mph
Humidity: 55%   Direction: 10°N
Pressure: 30.05"   Gusts: 16mph
Location:  30.7078°N, 94.8036°W
Report Text: K6R3 241530Z AUTO 01009G14KT 330V030 7SM CLR 13/04 A3005 RMK AO2 T01320042
Loading
Personal Weather Stations






























Interactive Weather Map New forecast layout! Learn more

10-Day Weather Forecast

Advertisements
Track Severe Weather on mobile